createdAt,value
2019-03-09T00:00:29.949Z,0.00
2019-03-09T00:01:29.951Z,0.00
2019-03-09T00:02:29.928Z,0.00
2019-03-09T00:03:29.916Z,0.00
2019-03-09T00:04:29.905Z,0.00
2019-03-09T00:05:29.904Z,0.00
2019-03-09T00:06:29.927Z,0.00
2019-03-09T00:07:29.876Z,0.00
2019-03-09T00:08:29.872Z,0.00
2019-03-09T00:09:29.858Z,0.00
2019-03-09T00:10:29.866Z,0.00
2019-03-09T00:11:29.833Z,0.00
2019-03-09T00:12:29.826Z,0.00
2019-03-09T00:13:29.805Z,0.00
2019-03-09T00:14:29.799Z,0.00
2019-03-09T00:15:29.784Z,0.00
2019-03-09T00:16:29.777Z,0.00
2019-03-09T00:17:29.768Z,0.00
2019-03-09T00:18:29.752Z,0.00
2019-03-09T00:19:29.744Z,0.00
2019-03-09T00:20:29.733Z,0.00
2019-03-09T00:21:29.725Z,0.00
2019-03-09T00:22:29.712Z,0.00
2019-03-09T00:23:29.699Z,0.00
2019-03-09T00:24:29.689Z,0.00
2019-03-09T00:25:29.705Z,0.00
2019-03-09T00:26:29.675Z,0.00
2019-03-09T00:27:30.314Z,0.00
2019-03-09T00:28:29.640Z,0.00
2019-03-09T00:29:29.639Z,0.00
2019-03-09T00:30:29.630Z,0.00
2019-03-09T00:31:29.611Z,0.00
2019-03-09T00:32:29.610Z,0.00
2019-03-09T00:33:29.591Z,0.00
2019-03-09T00:34:29.580Z,0.00
2019-03-09T00:35:29.570Z,0.00
2019-03-09T00:36:29.559Z,0.00
2019-03-09T00:37:29.544Z,0.00
2019-03-09T00:38:29.534Z,0.00
2019-03-09T00:39:29.540Z,0.00
2019-03-09T00:40:29.520Z,0.00
2019-03-09T00:41:29.512Z,0.00
2019-03-09T00:42:29.502Z,0.00
2019-03-09T00:43:29.484Z,0.00
2019-03-09T00:44:29.476Z,0.00
2019-03-09T00:45:29.469Z,0.00
2019-03-09T00:46:29.458Z,0.00
2019-03-09T00:47:29.436Z,0.00
2019-03-09T00:48:29.460Z,0.00
2019-03-09T00:49:29.420Z,0.00
2019-03-09T00:50:29.412Z,0.00
2019-03-09T00:51:29.394Z,0.00
2019-03-09T00:52:29.389Z,0.00
2019-03-09T00:53:29.376Z,0.00
2019-03-09T00:54:29.370Z,0.00
2019-03-09T00:55:29.358Z,0.00
2019-03-09T00:56:29.344Z,0.00
2019-03-09T00:57:29.334Z,0.00
2019-03-09T00:58:29.329Z,0.00
2019-03-09T00:59:29.337Z,0.00
2019-03-09T01:00:29.298Z,0.00
2019-03-09T01:01:29.289Z,0.00
2019-03-09T01:02:29.290Z,0.00
2019-03-09T01:03:29.273Z,0.00
2019-03-09T01:04:29.256Z,0.00
2019-03-09T01:05:29.254Z,0.00
2019-03-09T01:06:29.231Z,0.00
2019-03-09T01:07:29.266Z,0.00
2019-03-09T01:08:29.214Z,0.00
2019-03-09T01:09:29.232Z,0.00
2019-03-09T01:10:29.193Z,0.00
2019-03-09T01:11:29.179Z,0.00
2019-03-09T01:12:29.174Z,0.00
2019-03-09T01:13:29.161Z,0.00
2019-03-09T01:14:29.153Z,0.00
2019-03-09T01:15:29.144Z,0.00
2019-03-09T01:16:29.130Z,0.00
2019-03-09T01:17:29.114Z,0.00
2019-03-09T01:18:29.105Z,0.00
2019-03-09T01:19:29.098Z,0.00
2019-03-09T01:20:29.092Z,0.00
2019-03-09T01:21:29.080Z,0.00
2019-03-09T01:22:29.064Z,0.00
2019-03-09T01:23:29.059Z,0.00
2019-03-09T01:24:29.051Z,0.00
2019-03-09T01:25:29.038Z,0.00
2019-03-09T01:26:29.024Z,0.00
2019-03-09T01:27:29.006Z,0.00
2019-03-09T01:28:29.002Z,0.00
2019-03-09T01:29:28.986Z,0.00
2019-03-09T01:30:28.989Z,0.00
2019-03-09T01:31:28.964Z,0.00
2019-03-09T01:32:28.958Z,0.00
2019-03-09T01:33:28.946Z,0.00
2019-03-09T01:34:28.939Z,0.00
2019-03-09T01:35:28.924Z,0.00
2019-03-09T01:36:28.910Z,0.00
2019-03-09T01:37:28.915Z,0.00
2019-03-09T01:38:28.889Z,0.00
2019-03-09T01:39:28.882Z,0.00
2019-03-09T01:40:28.866Z,0.00
2019-03-09T01:41:28.858Z,0.00
2019-03-09T01:42:28.851Z,0.00
2019-03-09T01:43:28.838Z,0.00
2019-03-09T01:44:28.824Z,0.00
2019-03-09T01:45:28.814Z,0.00
2019-03-09T01:46:28.806Z,0.00
2019-03-09T01:47:28.817Z,0.00
2019-03-09T01:48:28.784Z,0.00
2019-03-09T01:49:28.784Z,0.00
2019-03-09T01:50:28.764Z,0.00
2019-03-09T01:51:28.756Z,0.00
2019-03-09T01:52:28.740Z,0.00
2019-03-09T01:53:36.492Z,0.00
2019-03-09T01:54:29.718Z,0.00
2019-03-09T01:55:28.707Z,0.00
2019-03-09T01:56:28.694Z,0.00
2019-03-09T01:57:28.683Z,0.00
2019-03-09T01:58:28.675Z,0.00
2019-03-09T01:59:28.665Z,0.00
2019-03-09T02:00:28.669Z,0.00
2019-03-09T02:01:28.650Z,0.00
2019-03-09T02:02:28.630Z,0.00
2019-03-09T02:03:28.615Z,0.00
2019-03-09T02:04:28.615Z,0.00
2019-03-09T02:05:28.599Z,0.00
2019-03-09T02:06:28.612Z,0.00
2019-03-09T02:07:28.583Z,0.00
2019-03-09T02:08:28.563Z,0.00
2019-03-09T02:09:28.557Z,0.00
2019-03-09T02:10:28.543Z,0.00
2019-03-09T02:11:28.543Z,0.00
2019-03-09T02:12:28.525Z,0.00
2019-03-09T02:13:28.511Z,0.00
2019-03-09T02:14:28.504Z,0.00
2019-03-09T02:15:28.490Z,0.00
2019-03-09T02:16:28.477Z,0.00
2019-03-09T02:17:28.471Z,0.00
2019-03-09T02:18:28.458Z,0.00
2019-03-09T02:19:28.445Z,0.00
2019-03-09T02:20:28.433Z,0.00
2019-03-09T02:21:28.433Z,0.00
2019-03-09T02:22:28.415Z,0.00
2019-03-09T02:23:28.432Z,0.00
2019-03-09T02:24:28.395Z,0.00
2019-03-09T02:25:28.383Z,0.00
2019-03-09T02:26:28.373Z,0.00
2019-03-09T02:27:28.361Z,0.00
2019-03-09T02:28:28.349Z,0.00
2019-03-09T02:29:28.334Z,0.00
2019-03-09T02:30:28.351Z,0.00
2019-03-09T02:31:28.314Z,0.00
2019-03-09T02:32:28.322Z,0.00
2019-03-09T02:33:28.365Z,0.00
2019-03-09T02:34:28.309Z,0.00
2019-03-09T02:35:28.300Z,0.00
2019-03-09T02:36:28.258Z,0.00
2019-03-09T02:37:28.257Z,0.00
2019-03-09T02:38:28.253Z,0.00
2019-03-09T02:39:28.247Z,0.00
2019-03-09T02:40:28.219Z,0.00
2019-03-09T02:41:28.206Z,0.00
2019-03-09T02:42:28.199Z,0.00
2019-03-09T02:43:28.194Z,0.00
2019-03-09T02:44:28.184Z,0.00
2019-03-09T02:45:28.185Z,0.00
2019-03-09T02:46:28.193Z,0.00
2019-03-09T02:47:28.144Z,0.00
2019-03-09T02:48:28.135Z,0.00
2019-03-09T02:49:28.124Z,0.00
2019-03-09T02:50:28.122Z,0.00
2019-03-09T02:51:28.119Z,0.00
2019-03-09T02:52:28.099Z,0.00
2019-03-09T02:53:28.080Z,0.00
2019-03-09T02:54:28.071Z,0.00
2019-03-09T02:55:28.057Z,0.00
2019-03-09T02:56:28.051Z,0.00
2019-03-09T02:57:28.049Z,0.00
2019-03-09T02:58:28.025Z,0.00
2019-03-09T02:59:28.025Z,0.00
2019-03-09T03:00:28.000Z,0.00
2019-03-09T03:01:27.990Z,0.00
2019-03-09T03:02:27.988Z,0.00
2019-03-09T03:03:27.969Z,0.00
2019-03-09T03:04:27.959Z,0.00
2019-03-09T03:05:27.952Z,0.00
2019-03-09T03:06:27.942Z,0.00
2019-03-09T03:07:27.931Z,0.00
2019-03-09T03:08:27.922Z,0.00
2019-03-09T03:09:27.910Z,0.00
2019-03-09T03:10:27.897Z,0.00
2019-03-09T03:11:27.880Z,0.00
2019-03-09T03:12:27.872Z,0.00
2019-03-09T03:13:27.868Z,0.00
2019-03-09T03:14:27.860Z,0.00
2019-03-09T03:15:27.848Z,0.00
2019-03-09T03:16:27.834Z,0.00
2019-03-09T03:17:27.822Z,0.00
2019-03-09T03:18:27.813Z,0.00
2019-03-09T03:19:27.807Z,0.00
2019-03-09T03:20:27.787Z,0.00
2019-03-09T03:21:27.772Z,0.00
2019-03-09T03:22:27.790Z,0.00
2019-03-09T03:23:27.761Z,0.00
2019-03-09T03:24:27.746Z,0.00
2019-03-09T03:25:27.740Z,0.00
2019-03-09T03:26:27.725Z,0.00
2019-03-09T03:27:27.714Z,0.00
2019-03-09T03:28:27.703Z,0.00
2019-03-09T03:29:27.733Z,0.00
2019-03-09T03:30:27.806Z,0.00
2019-03-09T03:31:27.667Z,0.00
2019-03-09T03:32:27.660Z,0.00
2019-03-09T03:33:27.644Z,0.00
2019-03-09T03:34:27.641Z,0.00
2019-03-09T03:35:27.663Z,0.00
2019-03-09T03:36:27.619Z,0.00
2019-03-09T03:37:27.598Z,0.00
2019-03-09T03:38:27.596Z,0.00
2019-03-09T03:39:27.583Z,0.00
2019-03-09T03:40:27.580Z,0.00
2019-03-09T03:41:27.563Z,0.00
2019-03-09T03:42:27.564Z,0.00
2019-03-09T03:43:27.552Z,0.00
2019-03-09T03:44:27.528Z,0.00
2019-03-09T03:45:27.551Z,0.00
2019-03-09T03:46:27.503Z,0.00
2019-03-09T03:47:27.509Z,0.00
2019-03-09T03:48:27.500Z,0.00
2019-03-09T03:49:27.474Z,0.00
2019-03-09T03:50:27.464Z,0.00
2019-03-09T03:51:27.458Z,0.00
2019-03-09T03:52:27.443Z,0.00
2019-03-09T03:53:27.456Z,0.00
2019-03-09T03:54:27.419Z,0.00
2019-03-09T03:55:27.426Z,0.00
2019-03-09T03:56:27.403Z,0.00
2019-03-09T03:57:27.393Z,0.00
2019-03-09T03:58:27.401Z,0.00
2019-03-09T03:59:27.375Z,0.00
2019-03-09T04:00:27.354Z,0.00
2019-03-09T04:01:27.340Z,0.00
2019-03-09T04:02:27.343Z,0.00
2019-03-09T04:03:27.320Z,0.00
2019-03-09T04:04:27.325Z,0.00
2019-03-09T04:05:27.295Z,0.00
2019-03-09T04:06:27.382Z,0.00
2019-03-09T04:07:27.278Z,0.00
2019-03-09T04:08:27.317Z,0.00
2019-03-09T04:09:27.258Z,0.00
2019-03-09T04:10:27.249Z,0.00
2019-03-09T04:11:27.240Z,0.00
2019-03-09T04:12:27.226Z,0.00
2019-03-09T04:13:27.215Z,0.00
2019-03-09T04:14:27.212Z,0.00
2019-03-09T04:15:27.198Z,0.00
2019-03-09T04:16:27.184Z,0.00
2019-03-09T04:17:27.179Z,0.00
2019-03-09T04:18:27.165Z,0.00
2019-03-09T04:19:27.155Z,0.00
2019-03-09T04:20:27.140Z,0.00
2019-03-09T04:21:27.154Z,0.00
2019-03-09T04:22:27.120Z,0.00
2019-03-09T04:23:27.105Z,0.00
2019-03-09T04:24:27.093Z,0.00
2019-03-09T04:25:27.085Z,0.00
2019-03-09T04:26:27.071Z,0.00
2019-03-09T04:27:27.068Z,0.00
2019-03-09T04:28:27.048Z,0.00
2019-03-09T04:29:27.043Z,0.00
2019-03-09T04:30:27.028Z,0.00
2019-03-09T04:31:27.027Z,0.00
2019-03-09T04:32:27.014Z,0.00
2019-03-09T04:33:27.008Z,0.00
2019-03-09T04:34:26.999Z,0.00
2019-03-09T04:35:26.976Z,0.00
2019-03-09T04:36:26.969Z,0.00
2019-03-09T04:37:26.950Z,0.00
2019-03-09T04:38:26.959Z,0.00
2019-03-09T04:39:26.947Z,0.00
2019-03-09T04:40:26.925Z,0.00
2019-03-09T04:41:26.914Z,0.00
2019-03-09T04:42:26.903Z,0.00
2019-03-09T04:43:26.888Z,0.00
2019-03-09T04:44:27.326Z,0.00
2019-03-09T04:45:26.870Z,0.00
2019-03-09T04:46:26.860Z,0.00
2019-03-09T04:47:26.849Z,0.00
2019-03-09T04:48:26.835Z,0.00
2019-03-09T04:49:26.830Z,0.00
2019-03-09T04:50:26.833Z,0.00
2019-03-09T04:51:26.801Z,0.00
2019-03-09T04:52:26.791Z,0.00
2019-03-09T04:53:26.779Z,0.00
2019-03-09T04:54:26.767Z,0.00
2019-03-09T04:55:26.773Z,0.00
2019-03-09T04:56:26.743Z,0.00
2019-03-09T04:57:26.753Z,0.00
2019-03-09T04:58:26.803Z,0.00
2019-03-09T04:59:26.717Z,0.00
2019-03-09T05:00:26.705Z,0.00
2019-03-09T05:01:26.697Z,0.00
2019-03-09T05:02:26.686Z,0.00
2019-03-09T05:03:26.689Z,0.00
2019-03-09T05:04:26.658Z,0.00
2019-03-09T05:05:26.650Z,0.00
2019-03-09T05:06:26.648Z,0.00
2019-03-09T05:07:26.635Z,0.00
2019-03-09T05:08:26.619Z,0.00
2019-03-09T05:09:26.611Z,0.00
2019-03-09T05:10:26.597Z,0.00
2019-03-09T05:11:26.587Z,0.00
2019-03-09T05:12:26.575Z,0.00
2019-03-09T05:13:26.570Z,0.00
2019-03-09T05:14:26.551Z,0.00
2019-03-09T05:15:26.546Z,0.00
2019-03-09T05:16:26.532Z,0.00
2019-03-09T05:17:26.522Z,0.00
2019-03-09T05:18:26.518Z,0.00
2019-03-09T05:19:26.503Z,4.00
2019-03-09T05:20:26.489Z,4.00
2019-03-09T05:21:26.483Z,4.00
2019-03-09T05:22:26.470Z,4.00
2019-03-09T05:23:26.465Z,4.00
2019-03-09T05:24:26.454Z,4.00
2019-03-09T05:25:26.441Z,8.00
2019-03-09T05:26:26.443Z,8.00
2019-03-09T05:27:26.413Z,12.00
2019-03-09T05:28:26.402Z,12.00
2019-03-09T05:29:26.391Z,16.00
2019-03-09T05:30:26.386Z,16.00
2019-03-09T05:31:26.371Z,16.00
2019-03-09T05:32:26.357Z,20.00
2019-03-09T05:33:26.353Z,20.00
2019-03-09T05:34:26.339Z,24.00
2019-03-09T05:35:26.330Z,24.00
2019-03-09T05:36:26.317Z,24.00
2019-03-09T05:37:26.303Z,28.00
2019-03-09T05:38:26.293Z,32.00
2019-03-09T05:39:26.283Z,32.00
2019-03-09T05:40:26.279Z,32.00
2019-03-09T05:41:26.259Z,32.00
2019-03-09T05:42:26.253Z,36.00
2019-03-09T05:43:26.300Z,32.00
2019-03-09T05:44:26.234Z,36.00
2019-03-09T05:45:26.223Z,40.00
2019-03-09T05:46:26.214Z,40.00
2019-03-09T05:47:26.196Z,36.00
2019-03-09T05:48:26.190Z,36.00
2019-03-09T05:49:26.178Z,36.00
2019-03-09T05:50:26.169Z,40.00
2019-03-09T05:51:26.157Z,40.00
2019-03-09T05:52:26.154Z,44.00
2019-03-09T05:53:26.136Z,48.00
2019-03-09T05:54:26.129Z,48.00
2019-03-09T05:55:26.112Z,52.00
2019-03-09T05:56:26.120Z,60.00
2019-03-09T05:57:26.098Z,52.00
2019-03-09T05:58:26.095Z,52.00
2019-03-09T05:59:26.071Z,52.00
2019-03-09T06:00:26.055Z,60.00
2019-03-09T06:01:26.059Z,64.00
2019-03-09T06:02:26.047Z,68.00
2019-03-09T06:03:26.041Z,68.00
2019-03-09T06:04:26.015Z,72.00
2019-03-09T06:05:26.013Z,72.00
2019-03-09T06:06:25.995Z,80.00
2019-03-09T06:07:25.993Z,88.00
2019-03-09T06:08:25.978Z,88.00
2019-03-09T06:09:25.972Z,88.00
2019-03-09T06:10:25.957Z,100.00
2019-03-09T06:11:25.938Z,104.00
2019-03-09T06:12:25.935Z,100.00
2019-03-09T06:13:25.923Z,108.00
2019-03-09T06:14:25.919Z,116.00
2019-03-09T06:15:25.899Z,120.00
2019-03-09T06:16:25.890Z,124.00
2019-03-09T06:17:25.871Z,132.00
2019-03-09T06:18:25.869Z,136.00
2019-03-09T06:19:25.858Z,140.00
2019-03-09T06:20:25.844Z,172.00
2019-03-09T06:21:25.830Z,184.00
2019-03-09T06:22:25.820Z,188.00
2019-03-09T06:23:25.808Z,188.00
2019-03-09T06:24:25.803Z,200.00
2019-03-09T06:25:25.796Z,216.00
2019-03-09T06:26:25.784Z,216.00
2019-03-09T06:27:25.771Z,236.00
2019-03-09T06:28:25.760Z,232.00
2019-03-09T06:29:25.747Z,244.00
2019-03-09T06:30:25.734Z,248.00
2019-03-09T06:31:25.728Z,228.00
2019-03-09T06:32:25.728Z,204.00
2019-03-09T06:33:25.699Z,216.00
2019-03-09T06:34:25.696Z,228.00
2019-03-09T06:35:25.679Z,228.00
2019-03-09T06:36:25.672Z,228.00
2019-03-09T06:37:25.662Z,224.00
2019-03-09T06:38:25.662Z,248.00
2019-03-09T06:39:25.640Z,252.00
2019-03-09T06:40:25.625Z,268.00
2019-03-09T06:41:25.623Z,276.00
2019-03-09T06:42:25.605Z,288.00
2019-03-09T06:43:25.595Z,320.00
2019-03-09T06:44:25.581Z,332.00
2019-03-09T06:45:25.569Z,320.00
2019-03-09T06:46:25.564Z,300.00
2019-03-09T06:47:25.546Z,260.00
2019-03-09T06:48:25.547Z,252.00
2019-03-09T06:49:25.541Z,252.00
2019-03-09T06:50:25.521Z,260.00
2019-03-09T06:51:25.512Z,248.00
2019-03-09T06:52:25.492Z,252.00
2019-03-09T06:53:25.484Z,244.00
2019-03-09T06:54:25.477Z,224.00
2019-03-09T06:55:25.470Z,224.00
2019-03-09T06:56:25.449Z,252.00
2019-03-09T06:57:25.449Z,284.00
2019-03-09T06:58:25.444Z,344.00
2019-03-09T06:59:25.429Z,372.00
2019-03-09T07:00:25.416Z,368.00
2019-03-09T07:01:25.424Z,324.00
2019-03-09T07:02:25.391Z,316.00
2019-03-09T07:03:25.383Z,332.00
2019-03-09T07:04:25.369Z,344.00
2019-03-09T07:05:25.372Z,336.00
2019-03-09T07:06:25.348Z,336.00
2019-03-09T07:07:25.337Z,424.00
2019-03-09T07:08:25.336Z,428.00
2019-03-09T07:09:25.317Z,404.00
2019-03-09T07:10:25.302Z,372.00
2019-03-09T07:11:25.302Z,388.00
2019-03-09T07:12:25.280Z,452.00
2019-03-09T07:13:25.272Z,516.00
2019-03-09T07:14:25.280Z,600.00
2019-03-09T07:15:25.254Z,876.00
2019-03-09T07:16:25.242Z,1264.00
2019-03-09T07:17:25.233Z,1344.00
2019-03-09T07:18:25.222Z,1192.00
2019-03-09T07:19:25.220Z,1040.00
2019-03-09T07:20:25.192Z,860.00
2019-03-09T07:21:25.181Z,716.00
2019-03-09T07:22:25.178Z,588.00
2019-03-09T07:23:25.177Z,624.00
2019-03-09T07:24:25.226Z,704.00
2019-03-09T07:25:25.149Z,600.00
2019-03-09T07:26:25.132Z,524.00
2019-03-09T07:27:25.124Z,540.00
2019-03-09T07:28:25.118Z,652.00
2019-03-09T07:29:25.097Z,680.00
2019-03-09T07:30:25.089Z,560.00
2019-03-09T07:31:25.098Z,504.00
2019-03-09T07:32:25.071Z,536.00
2019-03-09T07:33:25.052Z,748.00
2019-03-09T07:34:25.049Z,1068.00
2019-03-09T07:35:25.035Z,1348.00
2019-03-09T07:36:25.024Z,1108.00
2019-03-09T07:37:25.017Z,1100.00
2019-03-09T07:38:25.006Z,800.00
2019-03-09T07:39:25.000Z,536.00
2019-03-09T07:40:24.985Z,600.00
2019-03-09T07:41:24.968Z,828.00
2019-03-09T07:42:24.965Z,872.00
2019-03-09T07:43:24.947Z,960.00
2019-03-09T07:44:24.937Z,1084.00
2019-03-09T07:45:24.942Z,916.00
2019-03-09T07:46:24.921Z,900.00
2019-03-09T07:47:24.910Z,884.00
2019-03-09T07:48:24.894Z,976.00
2019-03-09T07:49:24.891Z,996.00
2019-03-09T07:50:24.878Z,964.00
2019-03-09T07:51:24.872Z,796.00
2019-03-09T07:52:24.885Z,632.00
2019-03-09T07:53:24.859Z,660.00
2019-03-09T07:54:24.849Z,980.00
2019-03-09T07:55:24.871Z,1104.00
2019-03-09T07:56:24.817Z,1264.00
2019-03-09T07:57:24.816Z,1372.00
2019-03-09T07:58:24.795Z,1692.00
2019-03-09T07:59:24.801Z,1452.00
2019-03-09T08:00:24.774Z,1432.00
2019-03-09T08:01:24.758Z,1184.00
2019-03-09T08:02:24.752Z,860.00
2019-03-09T08:03:24.736Z,960.00
2019-03-09T08:04:24.720Z,1000.00
2019-03-09T08:05:24.715Z,924.00
2019-03-09T08:06:24.707Z,976.00
2019-03-09T08:07:24.699Z,992.00
2019-03-09T08:08:24.685Z,1032.00
2019-03-09T08:09:24.723Z,1048.00
2019-03-09T08:10:24.662Z,912.00
2019-03-09T08:11:24.669Z,944.00
2019-03-09T08:12:24.649Z,1032.00
2019-03-09T08:13:24.633Z,1244.00
2019-03-09T08:14:24.627Z,1440.00
2019-03-09T08:15:24.609Z,1280.00
2019-03-09T08:16:24.601Z,1484.00
2019-03-09T08:17:24.604Z,1212.00
2019-03-09T08:18:24.576Z,1076.00
2019-03-09T08:19:24.574Z,1372.00
2019-03-09T08:20:24.570Z,1496.00
2019-03-09T08:21:24.550Z,1848.00
2019-03-09T08:22:24.535Z,1684.00
2019-03-09T08:23:24.537Z,1432.00
2019-03-09T08:24:24.518Z,1076.00
2019-03-09T08:25:24.519Z,836.00
2019-03-09T08:26:24.495Z,732.00
2019-03-09T08:27:24.498Z,708.00
2019-03-09T08:28:24.477Z,732.00
2019-03-09T08:29:24.481Z,812.00
2019-03-09T08:30:24.462Z,876.00
2019-03-09T08:31:24.448Z,860.00
2019-03-09T08:32:24.460Z,756.00
2019-03-09T08:33:24.423Z,824.00
2019-03-09T08:34:24.411Z,988.00
2019-03-09T08:35:24.403Z,948.00
2019-03-09T08:36:24.394Z,856.00
2019-03-09T08:37:24.379Z,732.00
2019-03-09T08:38:24.364Z,768.00
2019-03-09T08:39:24.357Z,800.00
2019-03-09T08:40:24.388Z,896.00
2019-03-09T08:41:24.335Z,856.00
2019-03-09T08:42:24.327Z,924.00
2019-03-09T08:43:24.313Z,780.00
2019-03-09T08:44:24.317Z,800.00
2019-03-09T08:45:24.313Z,776.00
2019-03-09T08:46:24.285Z,748.00
2019-03-09T08:47:24.297Z,696.00
2019-03-09T08:48:24.274Z,696.00
2019-03-09T08:49:24.250Z,840.00
2019-03-09T08:50:24.248Z,800.00
2019-03-09T08:51:24.258Z,748.00
2019-03-09T08:52:24.223Z,636.00
2019-03-09T08:53:24.238Z,756.00
2019-03-09T08:54:24.264Z,1340.00
2019-03-09T08:55:24.187Z,1356.00
2019-03-09T08:56:24.184Z,1480.00
2019-03-09T08:57:24.530Z,2668.00
2019-03-09T08:58:24.193Z,108128.00
2019-03-09T08:59:24.149Z,112032.00
2019-03-09T09:00:24.174Z,116448.00
2019-03-09T09:01:24.115Z,114144.00
2019-03-09T09:02:24.124Z,112672.00
2019-03-09T09:03:24.099Z,109152.00
2019-03-09T09:04:24.086Z,109568.00
2019-03-09T09:05:24.080Z,106432.00
2019-03-09T09:06:24.101Z,106464.00
2019-03-09T09:07:24.050Z,106944.00
2019-03-09T09:08:24.044Z,108960.00
2019-03-09T09:09:24.039Z,108256.00
2019-03-09T09:10:24.060Z,110304.00
2019-03-09T09:11:24.015Z,110560.00
2019-03-09T09:12:23.994Z,106688.00
2019-03-09T09:13:23.997Z,106240.00
2019-03-09T09:14:23.984Z,106528.00
2019-03-09T09:15:23.982Z,108864.00
2019-03-09T09:16:23.971Z,108480.00
2019-03-09T09:17:23.963Z,108352.00
2019-03-09T09:18:23.940Z,110496.00
2019-03-09T09:19:23.930Z,108416.00
2019-03-09T09:20:23.922Z,104320.00
2019-03-09T09:21:23.908Z,108896.00
2019-03-09T09:22:23.909Z,107712.00
2019-03-09T09:23:23.895Z,45472.00
2019-03-09T09:24:23.883Z,112128.00
2019-03-09T09:25:23.869Z,115424.00
2019-03-09T09:26:23.858Z,71776.00
2019-03-09T09:27:23.858Z,119296.00
2019-03-09T09:28:23.848Z,119136.00
2019-03-09T09:29:23.826Z,106176.00
2019-03-09T09:30:23.836Z,10632.00
2019-03-09T09:31:23.805Z,8428.00
2019-03-09T09:32:23.804Z,119616.00
2019-03-09T09:33:23.782Z,7440.00
2019-03-09T09:34:23.787Z,6668.00
2019-03-09T09:35:23.762Z,113888.00
2019-03-09T09:36:23.760Z,20096.00
2019-03-09T09:37:23.740Z,88672.00
2019-03-09T09:38:23.735Z,12680.00
2019-03-09T09:39:23.727Z,14148.00
2019-03-09T09:40:23.727Z,15316.00
2019-03-09T09:41:23.702Z,22112.00
2019-03-09T09:42:23.691Z,8604.00
2019-03-09T09:43:23.684Z,5176.00
2019-03-09T09:44:23.673Z,6276.00
2019-03-09T09:45:23.671Z,111680.00
2019-03-09T09:46:23.662Z,9816.00
2019-03-09T09:47:23.643Z,26208.00
2019-03-09T09:48:23.623Z,74752.00
2019-03-09T09:49:23.619Z,115456.00
2019-03-09T09:50:23.612Z,59648.00
2019-03-09T09:51:23.597Z,55232.00
2019-03-09T09:52:23.599Z,96256.00
2019-03-09T09:53:23.707Z,13220.00
2019-03-09T09:54:23.563Z,99776.00
2019-03-09T09:55:23.554Z,95712.00
2019-03-09T09:56:23.543Z,97088.00
2019-03-09T09:57:23.535Z,19552.00
2019-03-09T09:58:23.528Z,47264.00
2019-03-09T09:59:23.509Z,16576.00
2019-03-09T10:00:23.496Z,106240.00
2019-03-09T10:01:23.503Z,84352.00
2019-03-09T10:02:23.482Z,105664.00
2019-03-09T10:03:23.476Z,103488.00
2019-03-09T10:04:23.458Z,107616.00
2019-03-09T10:05:23.458Z,22336.00
2019-03-09T10:06:23.435Z,66944.00
2019-03-09T10:07:23.429Z,84128.00
2019-03-09T10:08:23.423Z,81056.00
2019-03-09T10:09:23.405Z,81888.00
2019-03-09T10:10:23.401Z,104896.00
2019-03-09T10:11:23.392Z,97696.00
2019-03-09T10:12:23.378Z,83616.00
2019-03-09T10:13:23.369Z,100608.00
2019-03-09T10:14:23.365Z,60448.00
2019-03-09T10:15:23.378Z,50464.00
2019-03-09T10:16:23.332Z,32128.00
2019-03-09T10:17:23.324Z,115424.00
2019-03-09T10:18:23.316Z,31328.00
2019-03-09T10:19:23.305Z,97088.00
2019-03-09T10:20:23.303Z,96000.00
2019-03-09T10:21:23.282Z,92704.00
2019-03-09T10:22:23.273Z,89184.00
2019-03-09T10:23:23.262Z,112160.00
2019-03-09T10:24:23.258Z,83872.00
2019-03-09T10:25:23.241Z,108736.00
2019-03-09T10:26:26.473Z,111840.00
2019-03-09T10:27:23.226Z,114944.00
2019-03-09T10:28:23.212Z,108480.00
2019-03-09T10:29:23.204Z,108448.00
2019-03-09T10:30:23.197Z,10724.00
2019-03-09T10:31:23.181Z,10132.00
2019-03-09T10:32:23.175Z,12512.00
2019-03-09T10:33:24.215Z,14420.00
2019-03-09T10:34:23.147Z,48480.00
2019-03-09T10:35:23.148Z,9572.00
2019-03-09T10:36:23.134Z,7252.00
2019-03-09T10:37:23.122Z,8000.00
2019-03-09T10:38:23.135Z,5288.00
2019-03-09T10:39:23.094Z,3744.00
2019-03-09T10:40:23.083Z,3376.00
2019-03-09T10:41:23.075Z,3536.00
2019-03-09T10:42:23.063Z,3664.00
2019-03-09T10:43:23.053Z,3568.00
2019-03-09T10:44:23.058Z,3300.00
2019-03-09T10:45:23.034Z,3420.00
2019-03-09T10:46:23.022Z,3984.00
2019-03-09T10:47:23.013Z,15060.00
2019-03-09T10:48:22.995Z,11212.00
2019-03-09T10:49:22.993Z,9944.00
2019-03-09T10:50:22.975Z,11012.00
2019-03-09T10:51:22.987Z,7308.00
2019-03-09T10:52:22.961Z,6148.00
2019-03-09T10:53:22.958Z,5308.00
2019-03-09T10:54:22.953Z,4044.00
2019-03-09T10:55:22.930Z,3928.00
2019-03-09T10:56:22.915Z,2656.00
2019-03-09T10:57:22.901Z,2820.00
2019-03-09T10:58:22.897Z,2944.00
2019-03-09T10:59:22.887Z,2744.00
2019-03-09T11:00:22.876Z,3664.00
2019-03-09T11:01:22.864Z,5364.00
2019-03-09T11:02:22.848Z,4512.00
2019-03-09T11:03:22.836Z,3668.00
2019-03-09T11:04:27.701Z,4068.00
2019-03-09T11:05:23.823Z,4384.00
2019-03-09T11:06:22.814Z,4528.00
2019-03-09T11:07:22.791Z,3020.00
2019-03-09T11:08:22.787Z,2108.00
2019-03-09T11:09:22.775Z,2256.00
2019-03-09T11:10:22.775Z,2564.00
2019-03-09T11:11:22.759Z,6200.00
2019-03-09T11:12:22.755Z,4452.00
2019-03-09T11:13:22.728Z,3332.00
2019-03-09T11:14:22.733Z,2628.00
2019-03-09T11:15:22.708Z,2496.00
2019-03-09T11:16:22.699Z,2472.00
2019-03-09T11:17:22.687Z,2296.00
2019-03-09T11:18:22.673Z,3104.00
2019-03-09T11:19:22.666Z,3952.00
2019-03-09T11:20:22.654Z,3712.00
2019-03-09T11:21:22.652Z,4448.00
2019-03-09T11:22:22.638Z,5820.00
2019-03-09T11:23:22.639Z,6212.00
2019-03-09T11:24:22.617Z,5348.00
2019-03-09T11:25:22.610Z,4152.00
2019-03-09T11:26:22.601Z,3736.00
2019-03-09T11:27:22.581Z,5060.00
2019-03-09T11:28:22.580Z,4780.00
2019-03-09T11:29:22.565Z,4692.00
2019-03-09T11:30:22.553Z,4536.00
2019-03-09T11:31:22.542Z,4788.00
2019-03-09T11:32:22.529Z,5652.00
2019-03-09T11:33:22.524Z,6728.00
2019-03-09T11:34:22.511Z,5544.00
2019-03-09T11:35:22.490Z,9932.00
2019-03-09T11:36:22.483Z,30176.00
2019-03-09T11:37:22.493Z,32416.00
2019-03-09T11:38:22.465Z,9224.00
2019-03-09T11:39:22.452Z,10652.00
2019-03-09T11:40:22.451Z,11648.00
2019-03-09T11:41:22.429Z,8712.00
2019-03-09T11:42:22.409Z,8404.00
2019-03-09T11:43:22.411Z,11048.00
2019-03-09T11:44:22.397Z,9528.00
2019-03-09T11:45:22.391Z,9128.00
2019-03-09T11:46:22.383Z,8852.00
2019-03-09T11:47:22.363Z,7360.00
2019-03-09T11:48:22.352Z,5712.00
2019-03-09T11:49:22.339Z,3748.00
2019-03-09T11:50:22.336Z,2924.00
2019-03-09T11:51:22.323Z,3008.00
2019-03-09T11:52:22.312Z,2936.00
2019-03-09T11:53:22.310Z,2512.00
2019-03-09T11:54:22.292Z,2396.00
2019-03-09T11:55:22.283Z,4704.00
2019-03-09T11:56:22.263Z,8492.00
2019-03-09T11:57:22.263Z,7996.00
2019-03-09T11:58:22.248Z,7744.00
2019-03-09T11:59:22.231Z,9656.00
2019-03-09T12:00:22.221Z,9256.00
2019-03-09T12:01:22.211Z,7392.00
2019-03-09T12:02:22.210Z,9220.00
2019-03-09T12:03:22.195Z,8772.00
2019-03-09T12:04:22.183Z,7424.00
2019-03-09T12:05:22.168Z,11604.00
2019-03-09T12:06:22.162Z,9956.00
2019-03-09T12:07:22.144Z,11316.00
2019-03-09T12:08:22.141Z,9928.00
2019-03-09T12:09:22.125Z,9672.00
2019-03-09T12:10:22.119Z,12800.00
2019-03-09T12:11:22.101Z,8700.00
2019-03-09T12:12:22.092Z,7980.00
2019-03-09T12:13:22.113Z,7332.00
2019-03-09T12:14:22.071Z,8712.00
2019-03-09T12:15:22.065Z,8244.00
2019-03-09T12:16:22.054Z,6876.00
2019-03-09T12:17:22.039Z,8316.00
2019-03-09T12:18:22.033Z,6000.00
2019-03-09T12:19:22.025Z,8272.00
2019-03-09T12:20:22.021Z,6304.00
2019-03-09T12:21:21.999Z,6108.00
2019-03-09T12:22:21.988Z,9384.00
2019-03-09T12:23:21.992Z,6780.00
2019-03-09T12:24:21.963Z,6364.00
2019-03-09T12:25:21.954Z,7604.00
2019-03-09T12:26:21.948Z,8624.00
2019-03-09T12:27:21.941Z,7080.00
2019-03-09T12:28:21.920Z,6352.00
2019-03-09T12:29:21.918Z,6188.00
2019-03-09T12:30:21.905Z,7132.00
2019-03-09T12:31:21.910Z,6904.00
2019-03-09T12:32:21.888Z,6196.00
2019-03-09T12:33:21.863Z,5828.00
2019-03-09T12:34:21.856Z,5764.00
2019-03-09T12:35:21.849Z,5556.00
2019-03-09T12:36:21.855Z,5112.00
2019-03-09T12:37:21.821Z,4908.00